createdAt,value
2017-02-28T00:00:51.239Z,68.5
2017-02-28T00:02:01.543Z,68.27
2017-02-28T00:03:11.435Z,68.4
2017-02-28T00:04:20.916Z,68.5
2017-02-28T00:05:31.060Z,68.3
2017-02-28T00:06:41.415Z,68.4
2017-02-28T00:07:51.733Z,68.5
2017-02-28T00:09:02.060Z,68.37
2017-02-28T00:10:12.006Z,68.37
2017-02-28T00:11:22.567Z,68.37
2017-02-28T00:12:32.053Z,68.5
2017-02-28T00:13:42.446Z,68.56
2017-02-28T00:14:52.744Z,68.78
2017-02-28T00:16:02.642Z,68.5
2017-02-28T00:17:13.182Z,68.5
2017-02-28T00:18:23.121Z,68.37
2017-02-28T00:19:33.421Z,68.56
2017-02-28T00:20:43.389Z,68.27
2017-02-28T00:21:53.748Z,68.78
2017-02-28T00:23:03.951Z,68.4
2017-02-28T00:24:13.856Z,68.69
2017-02-28T00:25:23.742Z,69.26
2017-02-28T00:26:34.132Z,69.26
2017-02-28T00:27:43.999Z,69.04
2017-02-28T00:28:54.181Z,69.93
2017-02-28T00:30:04.168Z,69.99
2017-02-28T00:31:14.458Z,69.99
2017-02-28T00:32:24.806Z,69.74
2017-02-28T00:33:34.688Z,69.6
2017-02-28T00:34:45.377Z,69.51
2017-02-28T00:35:55.681Z,70.08
2017-02-28T00:37:05.592Z,70.18
2017-02-28T00:38:15.478Z,69.79
2017-02-28T00:39:25.796Z,70.47
2017-02-28T00:40:36.420Z,69.79
2017-02-28T00:41:45.914Z,69.99
2017-02-28T00:42:55.799Z,70.08
2017-02-28T00:44:06.097Z,69.79
2017-02-28T00:45:16.392Z,70.27
2017-02-28T00:46:26.916Z,70.18
2017-02-28T00:47:36.385Z,70.27
2017-02-28T00:48:46.675Z,70.08
2017-02-28T00:49:57.036Z,70.27
2017-02-28T00:51:07.356Z,70.75
2017-02-28T00:52:17.581Z,70.56
2017-02-28T00:53:27.854Z,70.56
2017-02-28T00:54:38.158Z,70.27
2017-02-28T00:55:48.465Z,70.08
2017-02-28T00:56:57.931Z,70.27
2017-02-28T00:58:08.493Z,70.56
2017-02-28T00:59:18.402Z,70.08
2017-02-28T01:00:28.768Z,70.27
2017-02-28T01:01:39.115Z,70.56
2017-02-28T01:02:48.662Z,70.65
2017-02-28T01:03:59.378Z,70.75
2017-02-28T01:05:09.240Z,70.65
2017-02-28T01:06:19.543Z,70.65
2017-02-28T01:07:29.882Z,70.75
2017-02-28T01:08:40.183Z,70.75
2017-02-28T01:09:49.902Z,70.75
2017-02-28T01:10:59.912Z,70.75
2017-02-28T01:12:09.826Z,70.94
2017-02-28T01:13:19.730Z,70.94
2017-02-28T01:14:30.115Z,71.42
2017-02-28T01:15:40.682Z,71.51
2017-02-28T01:16:50.336Z,71.32
2017-02-28T01:18:00.624Z,71.42
2017-02-28T01:19:10.878Z,71.42
2017-02-28T01:20:20.757Z,71.98
2017-02-28T01:21:31.297Z,71.7
2017-02-28T01:22:41.628Z,72.37
2017-02-28T01:23:51.909Z,72.71
2017-02-28T01:25:02.189Z,72.56
2017-02-28T01:26:12.637Z,72.17
2017-02-28T01:27:23.202Z,72.65
2017-02-28T01:28:33.725Z,72.75
2017-02-28T01:29:43.716Z,72.71
2017-02-28T01:30:53.992Z,72.71
2017-02-28T01:32:04.317Z,73.19
2017-02-28T01:33:14.514Z,73.28
2017-02-28T01:34:24.774Z,73.66
2017-02-28T01:35:35.105Z,73.47
2017-02-28T01:36:45.372Z,73.47
2017-02-28T01:37:55.713Z,73.38
2017-02-28T01:39:05.893Z,73.1
2017-02-28T01:40:15.795Z,73.28
2017-02-28T01:41:26.095Z,73.57
2017-02-28T01:42:35.973Z,73.1
2017-02-28T01:43:46.406Z,73
2017-02-28T01:44:57.007Z,72.9
2017-02-28T01:46:07.301Z,72.9
2017-02-28T01:47:17.165Z,72.71
2017-02-28T01:48:27.501Z,72.81
2017-02-28T01:49:37.906Z,72.42
2017-02-28T01:50:48.432Z,72.14
2017-02-28T01:51:58.765Z,71.95
2017-02-28T01:53:08.630Z,72.24
2017-02-28T01:54:18.504Z,72.05
2017-02-28T01:55:28.379Z,72.24
2017-02-28T01:56:38.939Z,71.76
2017-02-28T01:57:48.840Z,71.57
2017-02-28T01:58:58.725Z,71.95
2017-02-28T02:00:08.620Z,71.28
2017-02-28T02:01:18.565Z,71.09
2017-02-28T02:02:28.776Z,70.9
2017-02-28T02:03:38.664Z,71
2017-02-28T02:04:49.018Z,70.72
2017-02-28T02:05:59.474Z,70.62
2017-02-28T02:07:09.763Z,70.72
2017-02-28T02:08:20.352Z,70.24
2017-02-28T02:09:30.284Z,70.05
2017-02-28T02:10:40.153Z,70.24
2017-02-28T02:11:50.076Z,69.57
2017-02-28T02:13:00.366Z,70.05
2017-02-28T02:14:10.881Z,69.85
2017-02-28T02:15:21.148Z,69.76
2017-02-28T02:16:31.051Z,69.29
2017-02-28T02:17:41.336Z,69.38
2017-02-28T02:18:51.634Z,69.57
2017-02-28T02:20:02.230Z,69.48
2017-02-28T02:21:12.122Z,69.1
2017-02-28T02:22:22.047Z,69.19
2017-02-28T02:23:31.139Z,69.29
2017-02-28T02:24:40.615Z,68.9
2017-02-28T02:25:51.139Z,69.1
2017-02-28T02:27:01.458Z,68.9
2017-02-28T02:28:11.764Z,68.71
2017-02-28T02:29:21.643Z,68.52
2017-02-28T02:30:31.531Z,68.71
2017-02-28T02:31:41.857Z,68.9
2017-02-28T02:32:52.131Z,69
2017-02-28T02:34:02.404Z,68.71
2017-02-28T02:35:12.686Z,68.62
2017-02-28T02:36:22.588Z,68.9
2017-02-28T02:37:33.211Z,68.9
2017-02-28T02:38:43.155Z,68.71
2017-02-28T02:39:53.470Z,68.9
2017-02-28T02:41:03.331Z,68.43
2017-02-28T02:42:13.827Z,68.33
2017-02-28T02:43:24.362Z,68.24
2017-02-28T02:44:34.352Z,68.33
2017-02-28T02:45:44.665Z,68.33
2017-02-28T02:46:54.949Z,68.43
2017-02-28T02:48:05.250Z,68.43
2017-02-28T02:49:15.924Z,68.52
2017-02-28T02:50:26.372Z,68.43
2017-02-28T02:51:36.267Z,68.33
2017-02-28T02:52:46.550Z,68.52
2017-02-28T02:53:56.456Z,68.43
2017-02-28T02:55:07.124Z,68.24
2017-02-28T02:56:17.479Z,68.24
2017-02-28T02:57:27.776Z,68.33
2017-02-28T02:58:38.079Z,68.33
2017-02-28T02:59:47.927Z,68.24
2017-02-28T03:00:58.475Z,68.05
2017-02-28T03:02:07.984Z,68.05
2017-02-28T03:03:17.616Z,68.15
2017-02-28T03:04:27.921Z,67.76
2017-02-28T03:05:37.848Z,68.05
2017-02-28T03:06:48.082Z,67.86
2017-02-28T03:07:58.372Z,67.95
2017-02-28T03:09:08.232Z,68.15
2017-02-28T03:10:18.555Z,67.86
2017-02-28T03:11:28.809Z,67.76
2017-02-28T03:12:38.932Z,67.95
2017-02-28T03:13:48.819Z,67.76
2017-02-28T03:14:58.684Z,67.76
2017-02-28T03:16:08.632Z,67.76
2017-02-28T03:17:18.644Z,67.86
2017-02-28T03:18:29.239Z,67.73
2017-02-28T03:19:39.530Z,67.73
2017-02-28T03:20:49.786Z,67.95
2017-02-28T03:22:00.080Z,67.63
2017-02-28T03:23:10.331Z,67.82
2017-02-28T03:24:20.908Z,67.57
2017-02-28T03:25:30.975Z,67.92
2017-02-28T03:26:40.836Z,67.54
2017-02-28T03:27:50.704Z,67.38
2017-02-28T03:29:01.085Z,67.92
2017-02-28T03:30:11.194Z,68.01
2017-02-28T03:31:21.515Z,67.73
2017-02-28T03:32:31.871Z,67.92
2017-02-28T03:33:41.804Z,67.73
2017-02-28T03:34:52.061Z,68.01
2017-02-28T03:36:02.636Z,67.73
2017-02-28T03:37:12.558Z,67.73
2017-02-28T03:38:22.857Z,67.54
2017-02-28T03:39:32.750Z,67.63
2017-02-28T03:40:43.066Z,67.25
2017-02-28T03:41:53.597Z,67.35
2017-02-28T03:43:03.892Z,67.25
2017-02-28T03:44:13.350Z,67.44
2017-02-28T03:45:23.307Z,67.16
2017-02-28T03:46:33.695Z,66.97
2017-02-28T03:47:44.226Z,67.1
2017-02-28T03:48:54.520Z,67.07
2017-02-28T03:50:04.799Z,66.91
2017-02-28T03:51:14.281Z,66.3
2017-02-28T03:52:24.147Z,66.43
2017-02-28T03:53:33.910Z,66.62
2017-02-28T03:54:43.396Z,66.72
2017-02-28T03:55:53.694Z,66.81
2017-02-28T03:57:03.599Z,66.78
2017-02-28T03:58:13.937Z,66.59
2017-02-28T03:59:24.058Z,66.59
2017-02-28T04:00:33.919Z,66.53
2017-02-28T04:01:44.236Z,66.72
2017-02-28T04:02:54.104Z,66.72
2017-02-28T04:04:03.974Z,66.62
2017-02-28T04:05:14.519Z,66.49
2017-02-28T04:06:24.461Z,66.59
2017-02-28T04:07:34.561Z,66.49
2017-02-28T04:08:44.431Z,66.43
2017-02-28T04:09:54.697Z,66.72
2017-02-28T04:11:05.317Z,66.49
2017-02-28T04:12:15.596Z,66.59
2017-02-28T04:13:25.892Z,66.53
2017-02-28T04:14:35.779Z,66.53
2017-02-28T04:15:45.785Z,66.62
2017-02-28T04:16:56.292Z,66.59
2017-02-28T04:18:06.595Z,66.3
2017-02-28T04:19:16.525Z,66.43
2017-02-28T04:20:26.816Z,66.49
2017-02-28T04:21:37.109Z,66.72
2017-02-28T04:22:47.280Z,66.72
2017-02-28T04:23:56.380Z,66.62
2017-02-28T04:25:06.640Z,66.49
2017-02-28T04:26:16.920Z,66.62
2017-02-28T04:27:26.847Z,66.33
2017-02-28T04:28:37.437Z,66.78
2017-02-28T04:29:47.302Z,67.25
2017-02-28T04:30:57.206Z,66.81
2017-02-28T04:32:07.563Z,67
2017-02-28T04:33:17.857Z,67.19
2017-02-28T04:34:28.406Z,67.16
2017-02-28T04:35:38.718Z,67.16
2017-02-28T04:36:48.607Z,66.91
2017-02-28T04:37:58.887Z,66.91
2017-02-28T04:39:08.427Z,67
2017-02-28T04:40:18.579Z,67.35
2017-02-28T04:41:28.503Z,67.44
2017-02-28T04:42:38.452Z,67.47
2017-02-28T04:43:48.728Z,67.54
2017-02-28T04:44:58.769Z,67.44
2017-02-28T04:46:08.976Z,67.47
2017-02-28T04:47:18.905Z,67.57
2017-02-28T04:48:28.867Z,67.44
2017-02-28T04:49:39.166Z,67.73
2017-02-28T04:50:49.564Z,67.44
2017-02-28T04:51:59.676Z,67.47
2017-02-28T04:53:09.595Z,67.29
2017-02-28T04:54:19.524Z,67.73
2017-02-28T04:55:29.960Z,67.63
2017-02-28T04:56:40.249Z,67.63
2017-02-28T04:57:50.892Z,67.63
2017-02-28T04:59:01.180Z,67.63
2017-02-28T05:00:11.089Z,67.73
2017-02-28T05:01:21.379Z,67.63
2017-02-28T05:02:31.660Z,67.92
2017-02-28T05:03:41.828Z,67.82
2017-02-28T05:04:51.752Z,67.73
2017-02-28T05:06:02.084Z,67.73
2017-02-28T05:07:12.373Z,67.73
2017-02-28T05:08:22.417Z,67.44
2017-02-28T05:09:32.969Z,67.16
2017-02-28T05:10:42.892Z,67.25
2017-02-28T05:11:53.182Z,67.44
2017-02-28T05:13:03.466Z,66.97
2017-02-28T05:14:13.865Z,66.97
2017-02-28T05:15:24.470Z,66.97
2017-02-28T05:16:33.935Z,67.25
2017-02-28T05:17:43.026Z,67.54
2017-02-28T05:18:53.334Z,67.16
2017-02-28T05:20:03.616Z,67.35
2017-02-28T05:21:13.756Z,67.44
2017-02-28T05:22:23.254Z,67.16
2017-02-28T05:23:33.783Z,67.44
2017-02-28T05:24:44.070Z,67.16
2017-02-28T05:25:53.959Z,67.82
2017-02-28T05:27:04.108Z,67.73
2017-02-28T05:28:14.392Z,68.01
2017-02-28T05:29:24.373Z,68.68
2017-02-28T05:30:34.722Z,69.35
2017-02-28T05:31:45.059Z,69.25
2017-02-28T05:32:55.733Z,69.35
2017-02-28T05:34:06.021Z,69.41
2017-02-28T05:35:15.934Z,69.88
2017-02-28T05:36:26.292Z,69.6
2017-02-28T05:37:36.605Z,70.17
2017-02-28T05:38:46.735Z,70.83
2017-02-28T05:39:56.623Z,70.64
2017-02-28T05:41:06.968Z,71.22
2017-02-28T05:42:17.255Z,71.5
2017-02-28T05:43:26.738Z,71.02
2017-02-28T05:44:36.907Z,71.5
2017-02-28T05:45:47.228Z,72.16
2017-02-28T05:46:57.504Z,72.74
2017-02-28T05:48:07.357Z,72.45
2017-02-28T05:49:17.223Z,72.35
2017-02-28T05:50:27.812Z,72.45
2017-02-28T05:51:37.758Z,72.74
2017-02-28T05:52:48.099Z,72.74
2017-02-28T05:53:58.439Z,73.02
2017-02-28T05:55:08.782Z,73.11
2017-02-28T05:56:19.305Z,72.83
2017-02-28T05:57:29.187Z,72.64
2017-02-28T05:58:39.467Z,72.35
2017-02-28T05:59:49.788Z,72.83
2017-02-28T06:00:59.668Z,72.55
2017-02-28T06:02:10.209Z,72.35
2017-02-28T06:03:20.503Z,72.45
2017-02-28T06:04:30.824Z,71.97
2017-02-28T06:05:41.124Z,72.16
2017-02-28T06:06:51.382Z,72.26
2017-02-28T06:08:01.960Z,71.88
2017-02-28T06:09:12.265Z,71.97
2017-02-28T06:10:21.724Z,72.07
2017-02-28T06:11:32.033Z,71.69
2017-02-28T06:12:42.363Z,71.69
2017-02-28T06:13:52.551Z,71.69
2017-02-28T06:15:02.871Z,71.78
2017-02-28T06:16:12.751Z,71.31
2017-02-28T06:17:22.661Z,71.5
2017-02-28T06:18:32.580Z,71.59
2017-02-28T06:19:43.276Z,71.22
2017-02-28T06:20:53.305Z,71.41
2017-02-28T06:22:03.203Z,71.12
2017-02-28T06:23:13.510Z,71.41
2017-02-28T06:24:23.842Z,71.41
2017-02-28T06:25:34.477Z,71.59
2017-02-28T06:26:44.751Z,70.74
2017-02-28T06:27:55.110Z,70.83
2017-02-28T06:29:05.421Z,70.83
2017-02-28T06:30:15.739Z,70.74
2017-02-28T06:31:26.257Z,70.74
2017-02-28T06:32:36.555Z,70.54
2017-02-28T06:33:46.409Z,70.74
2017-02-28T06:34:56.758Z,70.64
2017-02-28T06:36:07.060Z,70.64
2017-02-28T06:37:17.576Z,70.54
2017-02-28T06:38:27.912Z,69.88
2017-02-28T06:39:37.824Z,69.98
2017-02-28T06:40:47.704Z,69.6
2017-02-28T06:41:58.011Z,69.79
2017-02-28T06:43:08.603Z,69.69
2017-02-28T06:44:18.861Z,69.79
2017-02-28T06:45:28.734Z,69.31
2017-02-28T06:46:39.045Z,68.93
2017-02-28T06:47:49.409Z,68.36
2017-02-28T06:48:59.143Z,68.36
2017-02-28T06:50:09.555Z,68.27
2017-02-28T06:51:19.434Z,68.27
2017-02-28T06:52:29.380Z,68.46
2017-02-28T06:53:39.694Z,68.07
2017-02-28T06:54:49.818Z,67.98
2017-02-28T06:55:59.725Z,67.98
2017-02-28T06:57:10.031Z,67.69
2017-02-28T06:58:20.351Z,67.79
2017-02-28T06:59:30.002Z,67.69
2017-02-28T07:00:40.685Z,67.79
2017-02-28T07:01:50.986Z,68.17
2017-02-28T07:03:00.880Z,68.17
2017-02-28T07:04:11.275Z,68.17
2017-02-28T07:05:21.560Z,68.27
2017-02-28T07:06:32.078Z,67.98
2017-02-28T07:07:41.982Z,67.79
2017-02-28T07:09:23.981Z,68.46
2017-02-28T07:10:34.323Z,68.27
2017-02-28T07:11:44.828Z,67.98
2017-02-28T07:12:55.087Z,68.07
2017-02-28T07:14:05.346Z,68.07
2017-02-28T07:15:15.307Z,67.98
2017-02-28T07:16:24.436Z,67.79
2017-02-28T07:17:35.025Z,67.69
2017-02-28T07:18:45.446Z,67.79
2017-02-28T07:19:55.789Z,67.98
2017-02-28T07:21:06.094Z,67.88
2017-02-28T07:22:16.396Z,67.5
2017-02-28T07:23:26.641Z,67.79
2017-02-28T07:24:36.551Z,67.41
2017-02-28T07:25:46.819Z,67.6
2017-02-28T07:26:57.137Z,67.32
2017-02-28T07:28:07.433Z,66.74
2017-02-28T07:29:18.027Z,66.46
2017-02-28T07:30:27.482Z,66.46
2017-02-28T07:31:37.782Z,66.46
2017-02-28T07:32:47.777Z,66.36
2017-02-28T07:33:58.058Z,66.17
2017-02-28T07:35:07.793Z,66.17
2017-02-28T07:36:18.271Z,66.17
2017-02-28T07:37:28.537Z,65.99
2017-02-28T07:38:38.858Z,66.17
2017-02-28T07:39:49.202Z,66.27
2017-02-28T07:40:59.730Z,66.08
2017-02-28T07:42:09.604Z,65.41
2017-02-28T07:43:19.547Z,65.6
2017-02-28T07:44:29.418Z,65.8
2017-02-28T07:45:39.304Z,65.41
2017-02-28T07:46:49.707Z,65.41
2017-02-28T07:48:00.262Z,65.51
2017-02-28T07:49:10.609Z,65.13
2017-02-28T07:50:20.911Z,65.6
2017-02-28T07:51:31.165Z,65.51
2017-02-28T07:52:41.734Z,65.6
2017-02-28T07:53:52.074Z,64.84
2017-02-28T07:55:01.994Z,65.03
2017-02-28T07:56:11.893Z,64.46
2017-02-28T07:57:22.203Z,64.27
2017-02-28T07:58:32.758Z,64.18
2017-02-28T07:59:42.694Z,63.6
2017-02-28T08:00:53.149Z,63.79
2017-02-28T08:02:03.577Z,63.89
2017-02-28T08:03:13.851Z,63.99
2017-02-28T08:04:24.402Z,63.89
2017-02-28T08:05:34.305Z,63.6
2017-02-28T08:06:44.627Z,64.08
2017-02-28T08:07:54.520Z,63.42
2017-02-28T08:09:04.831Z,63.6
2017-02-28T08:10:15.353Z,62.75
2017-02-28T08:11:25.632Z,62.85
2017-02-28T08:12:35.494Z,63.32
2017-02-28T08:13:45.366Z,62.75
2017-02-28T08:14:55.248Z,62.65
2017-02-28T08:16:05.397Z,62.94
2017-02-28T08:17:15.861Z,63.04
2017-02-28T08:18:25.443Z,62.69
2017-02-28T08:19:36.417Z,62.21
2017-02-28T08:20:46.825Z,62.05
2017-02-28T08:21:58.086Z,60.15
2017-02-28T08:23:08.852Z,58.37
2017-02-28T08:24:19.903Z,57.48
2017-02-28T08:25:30.860Z,56.55
2017-02-28T08:26:41.856Z,56.55
2017-02-28T08:27:53.248Z,55.02
2017-02-28T08:29:04.208Z,54.77
2017-02-28T08:30:14.676Z,54.86
2017-02-28T08:31:25.757Z,54.99
2017-02-28T08:32:36.312Z,52.88
2017-02-28T08:33:47.590Z,51.29
2017-02-28T08:34:58.187Z,50.64
2017-02-28T08:36:08.760Z,49.43
2017-02-28T08:37:19.818Z,46.87
2017-02-28T08:38:30.747Z,45.74
2017-02-28T08:39:42.026Z,46.15
2017-02-28T08:40:52.673Z,45.4
2017-02-28T08:42:03.643Z,44.06
2017-02-28T08:43:14.602Z,43.1
2017-02-28T08:44:25.617Z,42.7
2017-02-28T08:45:36.002Z,42.97
2017-02-28T08:46:47.162Z,42.22
2017-02-28T08:47:57.994Z,41.55
2017-02-28T08:49:08.620Z,40.78
2017-02-28T08:50:19.580Z,40.98
2017-02-28T08:51:29.985Z,39.47
2017-02-28T08:52:40.971Z,39.08
2017-02-28T08:53:51.076Z,38.98
2017-02-28T08:55:02.016Z,37.95
2017-02-28T08:56:12.651Z,39.1
2017-02-28T08:57:22.744Z,37.66
2017-02-28T08:58:33.783Z,36.24
2017-02-28T08:59:44.390Z,35
2017-02-28T09:00:54.993Z,35.1
2017-02-28T09:02:05.626Z,35.38
2017-02-28T09:03:16.928Z,36.15
2017-02-28T09:04:27.968Z,36.34
2017-02-28T09:05:38.256Z,37.93
2017-02-28T09:06:48.238Z,36.96
2017-02-28T09:07:58.166Z,36.92
2017-02-28T09:09:09.508Z,37.95
2017-02-28T09:10:20.494Z,37.19
2017-02-28T09:11:30.648Z,37.57
2017-02-28T09:12:41.209Z,37.02
2017-02-28T09:13:52.189Z,36.35
2017-02-28T09:15:03.001Z,34.94
2017-02-28T09:16:13.624Z,34
2017-02-28T09:17:24.217Z,33.35
2017-02-28T09:18:35.184Z,32.51
2017-02-28T09:19:46.161Z,32.42
2017-02-28T09:20:56.983Z,28.03
2017-02-28T09:22:07.276Z,27.37
2017-02-28T09:23:18.248Z,27.84
2017-02-28T09:24:29.285Z,28.91
2017-02-28T09:25:40.161Z,27.37
2017-02-28T09:26:50.985Z,27.19
2017-02-28T09:28:02.019Z,26.24
2017-02-28T09:29:12.982Z,27.87
2017-02-28T09:30:23.162Z,27.49
2017-02-28T09:31:34.123Z,27.2
2017-02-28T09:32:45.441Z,26.43
2017-02-28T09:33:56.030Z,27.11
2017-02-28T09:35:06.154Z,25.28
2017-02-28T09:36:17.173Z,25.57
2017-02-28T09:37:27.742Z,26.23
2017-02-28T09:38:39.160Z,25.46
2017-02-28T09:39:50.134Z,26.72
2017-02-28T09:41:00.743Z,27.49
2017-02-28T09:42:11.332Z,27.2
2017-02-28T09:43:22.030Z,26.9
2017-02-28T09:44:33.336Z,26.43
2017-02-28T09:45:43.261Z,27.09
2017-02-28T09:46:53.557Z,28.5
2017-02-28T09:48:04.554Z,29.63
2017-02-28T09:49:14.749Z,29.53
2017-02-28T09:50:25.356Z,28.77
2017-02-28T09:51:35.688Z,29.23
2017-02-28T09:52:46.641Z,29.69
2017-02-28T09:53:57.213Z,29.68
2017-02-28T09:55:08.217Z,30.16
2017-02-28T09:56:19.423Z,29.58
2017-02-28T09:57:30.379Z,28.94
2017-02-28T09:58:40.076Z,27.52
2017-02-28T09:59:50.475Z,27.31
2017-02-28T10:01:01.457Z,28.26
2017-02-28T10:02:12.693Z,29.68
2017-02-28T10:03:23.701Z,29.77
2017-02-28T10:05:05.755Z,30.35
2017-02-28T10:06:16.762Z,30.72
2017-02-28T10:07:27.565Z,30.62
2017-02-28T10:08:38.572Z,30.44
2017-02-28T10:09:49.241Z,30.06
2017-02-28T10:10:58.744Z,29.88
2017-02-28T10:12:09.335Z,28.92
2017-02-28T10:13:21.120Z,28.45
2017-02-28T10:14:32.059Z,27.79
2017-02-28T10:15:43.108Z,27.22
2017-02-28T10:16:54.059Z,28.08
2017-02-28T10:18:04.842Z,27.98
2017-02-28T10:19:16.127Z,25.7
2017-02-28T10:20:26.716Z,26.56
2017-02-28T10:21:36.845Z,26.85
2017-02-28T10:22:47.281Z,27.33
2017-02-28T10:23:58.315Z,27.5
2017-02-28T10:25:09.684Z,28.09
2017-02-28T10:26:20.293Z,27.81
2017-02-28T10:27:31.272Z,27.34
2017-02-28T10:28:41.768Z,26.57
2017-02-28T10:29:52.338Z,26.37
2017-02-28T10:31:02.907Z,27.52
2017-02-28T10:32:13.391Z,27.89
2017-02-28T10:33:23.484Z,27.22
2017-02-28T10:34:34.512Z,26.07
2017-02-28T10:35:45.101Z,26.54
2017-02-28T10:36:54.688Z,26.75
2017-02-28T10:38:05.250Z,26.85
2017-02-28T10:39:16.264Z,25.79
2017-02-28T10:40:26.824Z,25.71
2017-02-28T10:41:37.403Z,25.42
2017-02-28T10:42:48.690Z,24.75
2017-02-28T10:43:58.626Z,25.24
2017-02-28T10:45:08.949Z,24.66
2017-02-28T10:46:19.894Z,24.19
2017-02-28T10:47:30.259Z,23.52
2017-02-28T10:48:41.062Z,24.1
2017-02-28T10:49:51.349Z,24.49
2017-02-28T10:51:02.342Z,24.49
2017-02-28T10:52:13.401Z,23.33
2017-02-28T10:53:24.398Z,23.62
2017-02-28T10:54:34.857Z,23.33
2017-02-28T10:55:45.017Z,24.1
2017-02-28T10:56:55.675Z,24.66
2017-02-28T10:58:06.657Z,24.86
2017-02-28T10:59:17.662Z,24.65
2017-02-28T11:00:28.484Z,24.27
2017-02-28T11:01:39.595Z,24.08
2017-02-28T11:02:50.585Z,24.37
2017-02-28T11:04:01.164Z,24.84
2017-02-28T11:05:12.178Z,24.64
2017-02-28T11:06:22.658Z,25.51
2017-02-28T11:07:33.172Z,25.6
2017-02-28T11:08:43.654Z,25.13
2017-02-28T11:09:54.602Z,24.18
2017-02-28T11:11:05.824Z,24.37
2017-02-28T11:12:17.049Z,24.84
2017-02-28T11:13:27.659Z,24.75
2017-02-28T11:14:38.182Z,25.13
2017-02-28T11:15:48.362Z,25.04
2017-02-28T11:16:59.029Z,24.48
2017-02-28T11:18:09.774Z,23.32
2017-02-28T11:19:20.804Z,22.47
2017-02-28T11:20:31.113Z,22.65
2017-02-28T11:21:41.044Z,23.69
2017-02-28T11:22:51.354Z,24.45
2017-02-28T11:24:02.231Z,24.64
2017-02-28T11:25:12.539Z,25.11
2017-02-28T11:26:22.465Z,25.87
2017-02-28T11:27:32.835Z,26.34
2017-02-28T11:28:43.849Z,27.28
2017-02-28T11:29:54.432Z,27
2017-02-28T11:31:04.727Z,27.28
2017-02-28T11:32:15.027Z,27.49
2017-02-28T11:33:25.379Z,25.97
2017-02-28T11:34:35.672Z,25.3
2017-02-28T11:35:46.892Z,24.74
2017-02-28T11:36:57.527Z,25.12
2017-02-28T11:38:08.539Z,24.64
2017-02-28T11:39:19.128Z,24.35
2017-02-28T11:40:30.179Z,24.63
2017-02-28T11:41:40.613Z,24.54
2017-02-28T11:42:51.619Z,24.45
2017-02-28T11:44:02.575Z,23.68
2017-02-28T11:45:13.604Z,23.78
2017-02-28T11:46:24.636Z,23.58
2017-02-28T11:47:35.478Z,24.08
2017-02-28T11:48:46.140Z,24.37
2017-02-28T11:49:57.171Z,23.22
2017-02-28T11:51:08.186Z,23.13
2017-02-28T11:52:18.348Z,22.36
2017-02-28T11:53:29.642Z,22.75
2017-02-28T11:54:40.695Z,22.08
2017-02-28T11:55:51.242Z,22.45
2017-02-28T11:57:01.600Z,22.74
2017-02-28T11:58:11.523Z,22.74
2017-02-28T11:59:22.090Z,23.6
2017-02-28T12:00:31.980Z,24.07
2017-02-28T12:01:41.882Z,23.68
2017-02-28T12:02:51.863Z,23.58
2017-02-28T12:04:02.220Z,23.58
2017-02-28T12:05:12.384Z,24.26
2017-02-28T12:06:22.295Z,24.16
2017-02-28T12:07:32.226Z,24.16
2017-02-28T12:08:42.655Z,24.16
2017-02-28T12:09:52.646Z,23.97
2017-02-28T12:11:03.193Z,24.45
2017-02-28T12:12:13.518Z,24.73
2017-02-28T12:13:23.814Z,25.29
2017-02-28T12:14:34.123Z,25.57
2017-02-28T12:15:44.523Z,25.96
2017-02-28T12:16:54.762Z,25.67
2017-02-28T12:18:04.664Z,25.59
2017-02-28T12:19:15.019Z,25.78
2017-02-28T12:20:25.348Z,25.41
2017-02-28T12:21:35.644Z,25.7
2017-02-28T12:22:46.234Z,25.87
2017-02-28T12:23:56.542Z,26.46
2017-02-28T12:25:06.867Z,25.79
2017-02-28T12:26:17.199Z,24.94
2017-02-28T12:27:27.131Z,24.56
2017-02-28T12:28:37.740Z,24.28
2017-02-28T12:29:47.709Z,23.6
2017-02-28T12:30:58.020Z,23.31
2017-02-28T12:32:07.954Z,23.98
2017-02-28T12:33:18.246Z,23.3
2017-02-28T12:34:28.849Z,23.6
2017-02-28T12:35:39.152Z,23.79
2017-02-28T12:36:49.056Z,24.08
2017-02-28T12:37:59.319Z,24.18
2017-02-28T12:39:09.298Z,24.46
2017-02-28T12:40:19.872Z,24.08
2017-02-28T12:41:30.316Z,24.27
2017-02-28T12:42:40.235Z,23.79
2017-02-28T12:43:50.174Z,24.35
2017-02-28T12:45:00.050Z,24.74
2017-02-28T12:46:09.400Z,25.02
2017-02-28T12:47:19.308Z,25.31
2017-02-28T12:48:29.650Z,24.74
2017-02-28T12:49:39.585Z,24.64
2017-02-28T12:50:49.929Z,24.08
2017-02-28T12:52:00.502Z,24.37
2017-02-28T12:53:10.864Z,23.71
2017-02-28T12:54:20.834Z,23.42
2017-02-28T12:55:30.736Z,22.56
2017-02-28T12:56:41.142Z,22.56
2017-02-28T12:57:51.409Z,23.35
2017-02-28T12:59:01.816Z,23.15
2017-02-28T13:00:11.746Z,22.38
2017-02-28T13:01:22.087Z,22.29
2017-02-28T13:02:32.050Z,22
2017-02-28T13:03:42.602Z,21.42
2017-02-28T13:04:52.510Z,21.61
2017-02-28T13:06:02.054Z,22.59
2017-02-28T13:07:11.992Z,22.39
2017-02-28T13:08:21.961Z,22
2017-02-28T13:09:32.549Z,20.65
2017-02-28T13:10:42.570Z,21.14
2017-02-28T13:11:52.457Z,21.33
2017-02-28T13:13:01.983Z,21.71
2017-02-28T13:14:12.411Z,21.23
2017-02-28T13:15:22.994Z,22.29
2017-02-28T13:16:33.410Z,21.32
2017-02-28T13:17:43.740Z,21.03
2017-02-28T13:18:54.073Z,21.03
2017-02-28T13:20:04.447Z,21.5
2017-02-28T13:21:15.080Z,21.21
2017-02-28T13:22:24.585Z,22.08
2017-02-28T13:23:34.944Z,21.99
2017-02-28T13:24:45.288Z,22.36
2017-02-28T13:25:54.805Z,21.98
2017-02-28T13:27:05.457Z,22.16
2017-02-28T13:28:15.383Z,22.91
2017-02-28T13:29:25.703Z,23.58
2017-02-28T13:30:36.041Z,24.15
2017-02-28T13:31:45.968Z,24.62
2017-02-28T13:32:56.654Z,24.9
2017-02-28T13:34:06.625Z,24.71
2017-02-28T13:35:16.127Z,24.71
2017-02-28T13:36:26.026Z,24.33
2017-02-28T13:37:35.943Z,24.23
2017-02-28T13:38:46.561Z,24.03
2017-02-28T13:39:56.896Z,24.51
2017-02-28T13:41:07.262Z,24.6
2017-02-28T13:42:17.231Z,25.27
2017-02-28T13:43:27.544Z,25.75
2017-02-28T13:44:38.403Z,25.85
2017-02-28T13:45:48.739Z,26.03
2017-02-28T13:46:59.057Z,26.6
2017-02-28T13:48:09.415Z,27.27
2017-02-28T13:49:19.764Z,27.37
2017-02-28T13:50:30.325Z,27.64
2017-02-28T13:51:40.671Z,27.91
2017-02-28T13:52:50.977Z,28.01
2017-02-28T13:54:00.519Z,28.39
2017-02-28T13:55:10.404Z,29.14
2017-02-28T13:56:20.984Z,29.05
2017-02-28T13:57:31.323Z,29.24
2017-02-28T13:58:41.262Z,29.81
2017-02-28T13:59:51.130Z,29.7
2017-02-28T14:01:01.580Z,30.18
2017-02-28T14:02:12.136Z,30.27
2017-02-28T14:03:22.043Z,30.56
2017-02-28T14:04:32.350Z,30.27
2017-02-28T14:05:42.674Z,30.37
2017-02-28T14:06:52.955Z,30.08
2017-02-28T14:08:03.399Z,30.18
2017-02-28T14:09:13.752Z,30.18
2017-02-28T14:10:22.823Z,30.27
2017-02-28T14:11:33.121Z,30.46
2017-02-28T14:12:43.051Z,30.56
2017-02-28T14:13:53.630Z,30.75
2017-02-28T14:15:03.946Z,30.75
2017-02-28T14:16:13.895Z,30.94
2017-02-28T14:17:24.171Z,30.86
2017-02-28T14:18:34.066Z,30.58
2017-02-28T14:19:44.332Z,30.66
2017-02-28T14:20:54.772Z,30.56
2017-02-28T14:22:04.680Z,30.85
2017-02-28T14:23:15.035Z,31.04
2017-02-28T14:24:25.396Z,31.13
2017-02-28T14:25:36.000Z,31.23
2017-02-28T14:26:46.334Z,31.04
2017-02-28T14:27:56.636Z,31.13
2017-02-28T14:29:06.995Z,31.32
2017-02-28T14:30:17.317Z,31.23
2017-02-28T14:31:27.457Z,30.94
2017-02-28T14:32:37.487Z,30.85
2017-02-28T14:33:47.867Z,30.94
2017-02-28T14:34:58.259Z,31.23
2017-02-28T14:36:08.719Z,31.32
2017-02-28T14:37:18.529Z,31.88
2017-02-28T14:38:28.901Z,31.8
2017-02-28T14:39:38.831Z,31.99
2017-02-28T14:40:49.218Z,31.79
2017-02-28T14:41:59.541Z,31.5
2017-02-28T14:43:10.154Z,31.31
2017-02-28T14:44:19.771Z,31.79
2017-02-28T14:45:29.692Z,31.98
2017-02-28T14:46:40.010Z,31.69
2017-02-28T14:47:50.374Z,31.69
2017-02-28T14:49:01.035Z,31.88
2017-02-28T14:50:11.532Z,32.45
2017-02-28T14:51:21.887Z,32.63
2017-02-28T14:52:32.262Z,32.73
2017-02-28T14:53:42.680Z,33.11
2017-02-28T14:54:53.271Z,33.2
2017-02-28T14:56:03.621Z,33.39
2017-02-28T14:57:14.001Z,33.87
2017-02-28T14:58:24.396Z,33.97
2017-02-28T14:59:34.846Z,34.52
2017-02-28T15:00:45.448Z,34.81
2017-02-28T15:01:55.406Z,35
2017-02-28T15:03:05.363Z,35.19
2017-02-28T15:04:15.693Z,35.19
2017-02-28T15:05:25.279Z,35.66
2017-02-28T15:06:35.550Z,35.95
2017-02-28T15:07:45.904Z,36.33
2017-02-28T15:08:55.815Z,36.33
2017-02-28T15:10:06.146Z,36.52
2017-02-28T15:11:16.461Z,36.79